Time;durP1;ratioP1;P1;durP2;ratioP2;P2;SDS_P1;SDS_P2;PMS_P1;PMS_P2;Temp;Humidity;BMP_temperature;BMP_pressure;BME280_temperature;BME280_humidity;BME280_pressure;Samples;Min_cycle;Max_cycle;Signal;HPM_P1;HPM_P2
2023/04/02 00:02:20;;;;;;;22.95;20.23;;;;;;;5.32;100.00;100966.50;5054033;28;20484;-56
2023/04/02 00:05:29;;;;;;;25.75;21.17;;;;;;;5.36;100.00;100970.97;5054019;28;20390;-55
2023/04/02 00:07:57;;;;;;;26.20;22.08;;;;;;;5.30;100.00;100970.66;5051631;28;20045;-55
2023/04/02 00:10:34;;;;;;;26.73;23.27;;;;;;;5.26;100.00;100983.25;5054244;28;20073;-56
2023/04/02 00:13:22;;;;;;;25.40;22.67;;;;;;;5.25;100.00;100986.63;5054653;28;20033;-55
2023/04/02 00:15:50;;;;;;;27.63;24.63;;;;;;;5.19;100.00;100993.97;5054872;28;20021;-55
2023/04/02 00:18:19;;;;;;;26.92;23.88;;;;;;;5.18;100.00;100997.31;5053827;28;20021;-54
2023/04/02 00:20:54;;;;;;;27.02;24.13;;;;;;;5.16;100.00;100998.91;5054824;28;20116;-54
2023/04/02 00:23:21;;;;;;;27.05;24.25;;;;;;;5.14;100.00;100997.06;5054540;28;20029;-54
2023/04/02 00:25:46;;;;;;;26.85;23.83;;;;;;;5.11;100.00;101006.34;5053641;28;20053;-54
2023/04/02 00:28:14;;;;;;;26.75;23.92;;;;;;;5.13;100.00;101006.41;5054447;28;20029;-54
2023/04/02 00:30:51;;;;;;;25.73;22.40;;;;;;;5.08;100.00;101011.25;5054749;28;20040;-55
2023/04/02 00:33:19;;;;;;;25.25;22.55;;;;;;;5.05;100.00;101011.09;5053461;28;20082;-54
2023/04/02 00:35:47;;;;;;;25.95;23.15;;;;;;;5.05;100.00;101025.56;5054375;28;20024;-55
2023/04/02 00:38:21;;;;;;;25.48;22.77;;;;;;;5.02;100.00;101026.28;5053973;28;20025;-54
2023/04/02 00:40:48;;;;;;;27.38;23.77;;;;;;;5.02;100.00;101027.94;5054420;28;20025;-55
2023/04/02 00:43:17;;;;;;;25.92;22.80;;;;;;;5.01;100.00;101028.72;5054043;28;20025;-55
2023/04/02 00:45:49;;;;;;;27.17;24.38;;;;;;;5.01;100.00;101028.72;5053509;28;20031;-56
2023/04/02 00:48:30;;;;;;;26.77;23.42;;;;;;;5.01;100.00;101038.94;5053830;28;20031;-54
2023/04/02 00:50:59;;;;;;;26.40;23.60;;;;;;;5.01;100.00;101046.59;5053701;28;20492;-56
2023/04/02 00:53:27;;;;;;;26.13;23.27;;;;;;;4.98;100.00;101046.44;5053300;28;20068;-55
2023/04/02 00:55:56;;;;;;;28.27;24.30;;;;;;;5.00;100.00;101044.88;5054035;28;20021;-54
2023/04/02 00:58:33;;;;;;;25.90;23.08;;;;;;;4.99;100.00;101045.66;5053895;28;20021;-54
2023/04/02 01:00:59;;;;;;;27.67;24.42;;;;;;;4.97;100.00;101060.91;5052772;28;20035;-54
2023/04/02 01:03:33;;;;;;;29.88;25.23;;;;;;;4.97;100.00;101068.56;5053565;28;20071;-55
2023/04/02 01:06:21;;;;;;;28.88;25.65;;;;;;;4.93;100.00;101062.41;5053601;28;20079;-55
2023/04/02 01:09:08;;;;;;;29.35;25.48;;;;;;;4.98;100.00;101074.53;5052675;28;20388;-54
2023/04/02 01:11:45;;;;;;;28.77;25.65;;;;;;;4.94;100.00;101079.50;5053684;28;20037;-56
2023/04/02 01:14:22;;;;;;;30.52;25.15;;;;;;;4.94;100.00;101079.50;5052445;28;20036;-55
2023/04/02 01:17:19;;;;;;;30.58;26.70;;;;;;;4.94;100.00;101084.59;5053550;28;20485;-55
2023/04/02 01:20:11;;;;;;;30.13;26.37;;;;;;;4.94;100.00;101089.72;5053525;28;20057;-54
2023/04/02 01:23:04;;;;;;;28.75;25.70;;;;;;;4.95;100.00;101082.91;5052907;28;20060;-55
2023/04/02 01:25:46;;;;;;;30.77;27.40;;;;;;;4.93;100.00;101104.91;5052780;28;20024;-55
2023/04/02 01:28:24;;;;;;;30.40;26.85;;;;;;;4.86;100.00;101101.16;5052138;28;20499;-54
2023/04/02 01:30:55;;;;;;;30.88;27.45;;;;;;;4.85;100.00;101103.63;5053500;28;20028;-55
2023/04/02 01:33:22;;;;;;;32.00;27.67;;;;;;;4.79;100.00;101104.16;5053164;28;20730;-55
2023/04/02 01:36:04;;;;;;;30.23;26.63;;;;;;;4.77;100.00;101105.72;5052556;28;20048;-55
2023/04/02 01:38:39;;;;;;;27.33;23.92;;;;;;;4.70;100.00;101118.94;5053161;28;20027;-54
2023/04/02 01:41:16;;;;;;;30.20;25.55;;;;;;;4.69;100.00;101127.41;5052812;28;20488;-54
2023/04/02 01:44:11;;;;;;;;;;;;;;;4.75;100.00;101133.75;5052847;28;20047;-54
2023/04/02 01:46:40;;;;;;;28.13;24.42;;;;;;;4.63;100.00;101132.16;5043844;28;20323;-54
2023/04/02 01:49:24;;;;;;;27.50;23.38;;;;;;;4.62;100.00;101144.00;5052240;28;20135;-55
2023/04/02 01:51:55;;;;;;;25.65;21.95;;;;;;;4.59;100.00;101142.16;5052848;28;20482;-54
2023/04/02 01:54:22;;;;;;;23.10;20.58;;;;;;;4.57;100.00;101153.97;5053161;28;20025;-55
2023/04/02 01:56:47;;;;;;;22.75;20.08;;;;;;;4.56;100.00;101154.75;5052286;28;20041;-55
2023/04/02 01:59:16;;;;;;;22.92;18.83;;;;;;;4.55;100.00;101163.19;5052543;28;20094;-55
2023/04/02 02:01:47;;;;;;;20.33;17.42;;;;;;;4.53;100.00;101167.34;5052631;28;20053;-55
2023/04/02 02:04:14;;;;;;;18.48;16.27;;;;;;;4.50;100.00;101167.16;5051994;28;20021;-55
2023/04/02 02:06:41;;;;;;;17.50;15.67;;;;;;;4.49;100.00;101175.59;5052907;28;20025;-55
2023/04/02 02:09:11;;;;;;;17.35;15.57;;;;;;;4.50;100.00;101185.00;5052558;28;20025;-54
2023/04/02 02:11:37;;;;;;;18.85;16.60;;;;;;;4.49;100.00;101182.38;5052197;28;20035;-54
2023/04/02 02:14:15;;;;;;;16.95;14.40;;;;;;;4.48;100.00;101194.28;5052213;28;20389;-54
2023/04/02 02:16:42;;;;;;;14.50;13.02;;;;;;;4.46;100.00;101185.63;5052669;28;20042;-54
2023/04/02 02:19:16;;;;;;;14.65;13.02;;;;;;;4.45;100.00;101199.19;5051997;28;20071;-55
2023/04/02 02:21:45;;;;;;;15.70;13.35;;;;;;;4.44;100.00;101192.31;5052698;28;20441;-55
2023/04/02 02:24:37;;;;;;;14.15;12.27;;;;;;;4.47;100.00;101209.47;5051645;28;20103;-55
2023/04/02 02:27:06;;;;;;;14.43;11.60;;;;;;;4.42;100.00;101206.66;5051145;28;20041;-54
2023/04/02 02:29:37;;;;;;;15.55;12.15;;;;;;;4.40;100.00;101210.78;5052667;28;20025;-55
2023/04/02 02:32:04;;;;;;;13.38;11.93;;;;;;;4.39;100.00;101215.00;5051500;28;20037;-55
2023/04/02 02:34:55;;;;;;;14.02;12.52;;;;;;;4.43;100.00;101218.63;5052585;28;20045;-55
2023/04/02 02:37:28;;;;;;;13.18;11.77;;;;;;;4.40;100.00;101223.53;5054296;28;20045;-54
2023/04/02 02:39:56;;;;;;;14.40;12.88;;;;;;;4.39;100.00;101224.31;5055829;28;20029;-55
2023/04/02 02:42:34;;;;;;;15.10;13.15;;;;;;;4.40;100.00;101241.41;5056625;28;20021;-54
2023/04/02 02:45:03;;;;;;;15.48;13.88;;;;;;;4.41;100.00;101238.06;5055454;28;20358;-54
2023/04/02 02:47:33;;;;;;;17.17;14.57;;;;;;;4.43;100.00;101246.72;5056160;28;20052;-55
2023/04/02 02:50:02;;;;;;;19.33;16.90;;;;;;;4.43;100.00;101247.59;5056117;28;20094;-54
2023/04/02 02:52:31;;;;;;;21.30;17.88;;;;;;;4.42;100.00;101256.03;5055748;28;20037;-55
2023/04/02 02:55:01;;;;;;;23.48;19.67;;;;;;;4.44;100.00;101263.75;5056033;28;20044;-56
2023/04/02 02:57:55;;;;;;;23.55;20.58;;;;;;;4.45;100.00;101255.31;5056234;28;20025;-55
2023/04/02 03:00:23;;;;;;;21.52;19.20;;;;;;;4.41;100.00;101268.69;5053167;28;20044;-54
2023/04/02 03:02:50;;;;;;;22.73;19.33;;;;;;;4.37;100.00;101275.28;5056070;28;20068;-54
2023/04/02 03:05:19;;;;;;;21.92;18.75;;;;;;;4.32;100.00;101275.78;5055778;28;20360;-54
2023/04/02 03:07:45;;;;;;;23.35;18.95;;;;;;;4.28;100.00;101274.72;5055282;28;20025;-54
2023/04/02 03:10:18;;;;;;;21.80;19.40;;;;;;;4.25;100.00;101284.75;5055550;28;20032;-55
2023/04/02 03:13:08;;;;;;;21.15;18.05;;;;;;;4.26;100.00;101289.03;5055996;28;20032;-55
2023/04/02 03:15:52;;;;;;;25.65;20.13;;;;;;;4.22;100.00;101292.19;5056098;28;20021;-53
2023/04/02 03:18:36;;;;;;;22.15;19.23;;;;;;;4.19;100.00;101294.56;5055687;28;20124;-55
2023/04/02 03:21:25;;;;;;;26.60;20.55;;;;;;;4.18;100.00;101300.44;5054907;28;20063;-53
2023/04/02 03:23:56;;;;;;;24.88;21.35;;;;;;;4.19;100.00;101307.31;5051601;28;20048;-54
2023/04/02 03:26:38;;;;;;;24.10;20.15;;;;;;;4.20;100.00;101314.19;5055776;28;20104;-54
2023/04/02 03:29:14;;;;;;;21.70;18.92;;;;;;;4.10;100.00;101322.91;5054367;28;20461;-55
2023/04/02 03:32:15;;;;;;;23.48;18.80;;;;;;;4.09;100.00;101331.34;5056062;28;20036;-54
2023/04/02 03:34:59;;;;;;;22.77;19.38;;;;;;;4.04;100.00;101341.28;5054800;28;20102;-55
2023/04/02 03:37:47;;;;;;;20.00;17.67;;;;;;;4.00;100.00;101348.63;5055441;28;20086;-55
2023/04/02 03:40:19;;;;;;;21.95;18.50;;;;;;;3.93;100.00;101353.31;5055177;28;20062;-54
2023/04/02 03:42:49;;;;;;;22.65;16.85;;;;;;;3.90;100.00;101355.69;5054760;28;20079;-55
2023/04/02 03:45:23;;;;;;;20.45;17.08;;;;;;;3.88;100.00;101372.53;5055014;28;20029;-54
2023/04/02 03:48:27;;;;;;;17.63;15.50;;;;;;;3.90;100.00;101376.09;5055191;28;20052;-54
2023/04/02 03:51:01;;;;;;;20.35;16.45;;;;;;;3.84;100.00;101383.31;5054784;28;20037;-54
2023/04/02 03:53:28;;;;;;;23.73;17.48;;;;;;;3.84;100.00;101392.66;5055146;28;20106;-55
2023/04/02 03:55:56;;;;;;;21.73;17.63;;;;;;;3.84;100.00;101396.06;5054223;28;20090;-53
2023/04/02 03:58:27;;;;;;;21.92;18.55;;;;;;;3.84;100.00;101396.06;5055013;28;20032;-54
2023/04/02 04:01:02;;;;;;;24.63;19.40;;;;;;;3.84;100.00;101405.41;5055143;28;20087;-54
2023/04/02 04:03:38;;;;;;;24.00;19.80;;;;;;;3.87;100.00;101405.59;5054067;28;20468;-55
2023/04/02 04:06:18;;;;;;;23.45;19.75;;;;;;;3.88;100.00;101412.47;5054745;28;20047;-54
2023/04/02 04:08:57;;;;;;;23.38;19.58;;;;;;;3.88;100.00;101412.47;5054867;28;20055;-54
2023/04/02 04:11:36;;;;;;;24.83;20.60;;;;;;;3.88;100.00;101409.91;5054374;28;20029;-54
2023/04/02 04:14:11;;;;;;;23.70;19.83;;;;;;;3.86;100.00;101414.91;5054582;28;20033;-54
2023/04/02 04:17:12;;;;;;;24.58;20.20;;;;;;;3.90;100.00;101421.97;5054056;28;20017;-54
2023/04/02 04:20:07;;;;;;;26.35;20.73;;;;;;;3.90;100.00;101433.84;5053531;28;20037;-55
2023/04/02 04:22:33;;;;;;;23.35;19.50;;;;;;;3.87;100.00;101434.50;5054690;28;20049;-54
2023/04/02 04:25:05;;;;;;;21.83;18.27;;;;;;;3.84;100.00;101436.00;5053519;28;20045;-54
2023/04/02 04:27:51;;;;;;;18.58;15.73;;;;;;;3.81;100.00;101454.53;5054388;28;20527;-53
2023/04/02 04:31:06;;;;;;;18.73;16.40;;;;;;;3.78;100.00;101464.50;5054377;28;20021;-54
2023/04/02 04:33:43;;;;;;;19.38;15.68;;;;;;;3.71;100.00;101470.00;5032040;28;20033;-54
2023/04/02 04:36:46;;;;;;;15.70;14.10;;;;;;;3.71;100.00;101475.09;5051183;28;20037;-54
2023/04/02 04:39:22;;;;;;;18.05;14.77;;;;;;;3.64;100.00;101489.06;5042077;28;20056;-55
2023/04/02 04:41:50;;;;;;;17.13;14.15;;;;;;;3.59;100.00;101490.41;5054175;28;20032;-55
2023/04/02 04:44:24;;;;;;;18.48;14.45;;;;;;;3.57;100.00;101497.97;5053815;28;20033;-54
2023/04/02 04:46:55;;;;;;;17.67;13.70;;;;;;;3.55;100.00;101506.28;5053807;28;20021;-55
2023/04/02 04:49:32;;;;;;;15.10;12.85;;;;;;;3.48;100.00;101507.53;5054148;28;20120;-55
2023/04/02 04:52:12;;;;;;;16.65;13.88;;;;;;;3.45;100.00;101507.34;5053120;28;20028;-53
2023/04/02 04:54:38;;;;;;;18.27;12.95;;;;;;;3.41;100.00;101513.88;5054228;28;20040;-55
2023/04/02 04:57:05;;;;;;;17.50;14.02;;;;;;;3.41;100.00;101520.66;5053800;28;20025;-54
2023/04/02 04:59:50;;;;;;;18.88;14.07;;;;;;;3.41;100.00;101526.63;5053023;28;20433;-55
2023/04/02 05:02:26;;;;;;;18.25;14.25;;;;;;;3.40;100.00;101539.25;5053321;28;20489;-55
2023/04/02 05:04:52;;;;;;;19.02;14.85;;;;;;;3.38;100.00;101538.25;5053754;28;20029;-55
2023/04/02 05:07:17;;;;;;;18.75;14.43;;;;;;;3.37;100.00;101542.47;5052862;28;20350;-54
2023/04/02 05:09:51;;;;;;;16.55;14.80;;;;;;;3.36;100.00;101548.34;5053901;28;20070;-54
2023/04/02 05:12:40;;;;;;;18.83;14.52;;;;;;;3.38;100.00;101548.44;5053201;28;20059;-54
2023/04/02 05:15:14;;;;;;;19.75;14.95;;;;;;;3.34;100.00;101561.75;5053385;28;20025;-54
2023/04/02 05:18:13;;;;;;;16.90;14.18;;;;;;;3.35;100.00;101566.06;5053520;28;21187;-55
2023/04/02 05:21:07;;;;;;;18.45;14.32;;;;;;;3.37;100.00;101567.06;5052824;28;20029;-54
2023/04/02 05:23:59;;;;;;;17.38;13.15;;;;;;;3.37;100.00;101575.59;5045363;28;20040;-53
2023/04/02 05:26:31;;;;;;;17.20;13.95;;;;;;;3.32;100.00;101570.94;5053561;28;20036;-53
2023/04/02 05:29:05;;;;;;;16.40;12.88;;;;;;;3.33;100.00;101568.53;5052302;28;20494;-54
2023/04/02 05:31:41;;;;;;;16.55;13.38;;;;;;;3.35;100.00;101576.28;5053310;28;20025;-54
2023/04/02 05:34:08;;;;;;;17.92;14.13;;;;;;;3.34;100.00;101571.94;5052029;28;20029;-54
2023/04/02 05:36:34;;;;;;;17.75;13.93;;;;;;;3.34;100.00;101584.69;5053342;28;20037;-53
2023/04/02 05:39:00;;;;;;;17.98;14.05;;;;;;;3.35;100.00;101594.09;5052930;28;20074;-54
2023/04/02 05:41:37;;;;;;;19.25;14.77;;;;;;;3.36;100.00;101594.22;5052559;28;20067;-54
2023/04/02 05:44:17;;;;;;;19.73;15.05;;;;;;;3.38;100.00;101607.94;5052908;28;20051;-53
2023/04/02 05:46:50;;;;;;;24.23;17.42;;;;;;;3.39;100.00;101603.72;5053085;28;20040;-54
2023/04/02 05:49:27;;;;;;;22.30;17.02;;;;;;;3.42;100.00;101609.03;5052085;28;20017;-53
2023/04/02 05:51:57;;;;;;;23.25;17.83;;;;;;;3.40;100.00;101611.47;5053062;28;20030;-53
2023/04/02 05:54:31;;;;;;;22.85;18.75;;;;;;;3.42;100.00;101619.22;5052854;28;20476;-55
2023/04/02 05:57:06;;;;;;;25.10;19.08;;;;;;;3.42;100.00;101619.22;5051778;28;20106;-52
2023/04/02 05:59:43;;;;;;;24.08;19.77;;;;;;;3.41;100.00;101630.22;5052781;28;20029;-54
2023/04/02 06:02:29;;;;;;;27.50;21.05;;;;;;;3.44;100.00;101653.34;5051576;28;20691;-54
2023/04/02 06:04:58;;;;;;;24.58;19.08;;;;;;;3.34;100.00;101650.94;5052458;28;20511;-56
2023/04/02 06:07:43;;;;;;;27.50;19.05;;;;;;;3.34;100.00;101662.00;5052645;28;20492;-54
2023/04/02 06:10:16;;;;;;;21.95;17.30;;;;;;;3.26;100.00;101664.00;5051939;28;20021;-54
2023/04/02 06:12:53;;;;;;;23.25;18.35;;;;;;;3.23;100.00;101671.41;5052206;28;20036;-54
2023/04/02 06:15:21;;;;;;;20.07;16.93;;;;;;;3.18;100.00;101672.75;5052902;28;20075;-54
2023/04/02 06:17:49;;;;;;;34.03;19.30;;;;;;;3.19;100.00;101682.16;5051842;28;20283;-54
2023/04/02 06:20:17;;;;;;;24.40;17.42;;;;;;;3.16;100.00;101681.06;5052277;28;20507;-54
2023/04/02 06:22:44;;;;;;;;;;;;;;;3.28;100.00;101694.69;5053091;28;20190;-54
2023/04/02 06:25:15;;;;;;;21.25;17.02;;;;;;;3.18;100.00;101693.13;5051543;28;20391;-53
2023/04/02 06:27:44;;;;;;;21.05;15.63;;;;;;;3.19;100.00;101705.09;5052598;28;20021;-55
2023/04/02 06:30:18;;;;;;;20.80;15.32;;;;;;;3.17;100.00;101704.09;5051488;28;20025;-54
2023/04/02 06:32:43;;;;;;;20.23;15.65;;;;;;;3.15;100.00;101708.19;5052568;28;20453;-53
2023/04/02 06:35:12;;;;;;;22.73;15.27;;;;;;;3.16;100.00;101720.13;5052264;28;20590;-53
2023/04/02 06:37:41;;;;;;;21.15;14.68;;;;;;;3.13;100.00;101720.78;5051805;28;20419;-52
2023/04/02 06:40:23;;;;;;;19.67;13.68;;;;;;;3.16;100.00;101726.91;5052123;28;20025;-54
2023/04/02 06:42:55;;;;;;;21.45;13.55;;;;;;;3.17;100.00;101728.69;5052386;28;20038;-54
2023/04/02 06:45:28;;;;;;;19.80;13.43;;;;;;;3.21;100.00;101735.78;5051708;28;20020;-54
2023/04/02 06:47:56;;;;;;;16.73;12.57;;;;;;;3.20;100.00;101747.63;5052413;28;20076;-55
2023/04/02 06:50:25;;;;;;;18.75;11.93;;;;;;;3.20;100.00;101749.28;5052491;28;20052;-54
2023/04/02 06:52:52;;;;;;;17.42;11.43;;;;;;;3.15;100.00;101758.25;5051472;28;20112;-53
2023/04/02 06:55:46;;;;;;;14.77;10.30;;;;;;;3.19;100.00;101772.97;5052059;28;20036;-54
2023/04/02 06:58:14;;;;;;;14.45;10.10;;;;;;;3.12;100.00;101771.63;5051200;28;20491;-55
2023/04/02 07:00:41;;;;;;;;;;;;;;;3.23;100.00;101780.97;5052681;28;20495;-54
2023/04/02 07:03:32;;;;;;;15.93;9.10;;;;;;;3.11;100.00;101785.13;5051811;28;20007;-53
2023/04/02 07:06:01;;;;;;;14.70;9.48;;;;;;;3.06;100.00;101796.63;5050860;28;20288;-54
2023/04/02 07:08:26;;;;;;;13.73;8.68;;;;;;;3.01;100.00;101800.50;5052351;28;20108;-53
2023/04/02 07:10:51;;;;;;;16.45;9.18;;;;;;;2.97;100.00;101807.03;5052231;28;20052;-53
2023/04/02 07:13:21;;;;;;;12.55;8.75;;;;;;;2.99;100.00;101824.97;5051147;28;20035;-54
2023/04/02 07:15:51;;;;;;;14.13;8.55;;;;;;;2.92;100.00;101824.50;5052101;28;20025;-53
2023/04/02 07:18:31;;;;;;;15.27;8.65;;;;;;;2.94;100.00;101827.16;5051949;28;20052;-55
2023/04/02 07:20:57;;;;;;;14.38;7.90;;;;;;;2.96;100.00;101831.59;5051183;28;20021;-55
2023/04/02 07:23:23;;;;;;;12.25;7.70;;;;;;;2.94;100.00;101848.44;5052157;28;20021;-54
2023/04/02 07:25:50;;;;;;;12.55;7.57;;;;;;;2.96;100.00;101846.00;5055711;28;20052;-53
2023/04/02 07:28:15;;;;;;;11.65;7.63;;;;;;;2.97;100.00;101851.22;5054617;28;20473;-53
2023/04/02 07:30:41;;;;;;;11.57;6.57;;;;;;;2.97;100.00;101847.78;5055532;28;20039;-52
2023/04/02 07:33:08;;;;;;;11.88;7.20;;;;;;;3.07;100.00;101849.34;5055980;28;20032;-53
2023/04/02 07:35:34;;;;;;;14.90;7.45;;;;;;;3.11;100.00;101856.47;5054925;28;20057;-54
2023/04/02 07:37:59;;;;;;;16.42;7.20;;;;;;;3.25;100.00;101860.97;5055189;28;20048;-53
2023/04/02 07:40:24;;;;;;;14.18;6.80;;;;;;;3.20;100.00;101872.47;5054612;28;20029;-55
2023/04/02 07:42:50;;;;;;;12.77;7.03;;;;;;;3.17;100.00;101866.25;5055416;28;20143;-54
2023/04/02 07:45:15;;;;;;;10.75;5.90;;;;;;;3.14;100.00;101866.91;5055033;28;20021;-53
2023/04/02 07:47:41;;;;;;;12.70;5.65;;;;;;;3.08;100.00;101876.59;5054629;28;20112;-53
2023/04/02 07:50:08;;;;;;;10.68;5.63;;;;;;;3.01;100.00;101875.25;5054956;28;20104;-53
2023/04/02 07:52:38;;;;;;;12.93;5.85;;;;;;;3.00;100.00;101887.88;5055153;28;20029;-53
2023/04/02 07:55:03;;;;;;;12.48;6.40;;;;;;;3.04;100.00;101885.66;5054228;28;20108;-54
2023/04/02 07:57:29;;;;;;;13.32;5.95;;;;;;;3.08;100.00;101889.34;5055005;28;20112;-51
2023/04/02 07:59:55;;;;;;;13.63;6.38;;;;;;;3.09;100.00;101886.03;5054531;28;20460;-54
2023/04/02 08:02:22;;;;;;;12.43;5.90;;;;;;;3.13;100.00;101895.69;5054210;28;20080;-54
2023/04/02 08:04:50;;;;;;;13.77;5.90;;;;;;;3.11;100.00;101902.31;5055126;28;20022;-54
2023/04/02 08:07:17;;;;;;;10.50;5.70;;;;;;;3.16;100.00;101901.00;5054794;28;20100;-55
2023/04/02 08:09:43;;;;;;;11.02;5.68;;;;;;;3.21;100.00;101911.56;5054206;28;20075;-51
2023/04/02 08:12:12;;;;;;;14.00;5.60;;;;;;;3.25;100.00;101914.47;5054395;28;20029;-52
2023/04/02 08:14:37;;;;;;;12.25;5.45;;;;;;;3.28;100.00;101912.13;5054744;28;20036;-52
2023/04/02 08:17:03;;;;;;;10.32;4.78;;;;;;;3.34;100.00;101926.13;5053555;28;20029;-52
2023/04/02 08:19:28;;;;;;;10.35;5.40;;;;;;;3.41;100.00;101928.38;5054809;28;20024;-50
2023/04/02 08:21:54;;;;;;;10.63;4.75;;;;;;;3.38;100.00;101923.03;5054574;28;20032;-53
2023/04/02 08:24:20;;;;;;;7.78;4.57;;;;;;;3.39;100.00;101929.91;5053712;28;20108;-52
2023/04/02 08:26:47;;;;;;;12.90;5.22;;;;;;;3.43;100.00;101939.56;5054608;28;20060;-48
2023/04/02 08:29:12;;;;;;;8.60;4.93;;;;;;;3.48;100.00;101940.78;5054119;28;20487;-52
2023/04/02 08:31:38;;;;;;;10.82;4.80;;;;;;;3.55;100.00;101950.69;5053937;28;20105;-52
2023/04/02 08:34:03;;;;;;;10.05;4.85;;;;;;;3.56;100.00;101956.66;5054181;28;20357;-52
2023/04/02 08:36:32;;;;;;;9.15;4.88;;;;;;;3.56;100.00;101965.19;5054101;28;20051;-52
2023/04/02 08:38:58;;;;;;;10.07;4.57;;;;;;;3.66;100.00;101960.81;5053703;28;20483;-51
2023/04/02 08:41:29;;;;;;;9.48;4.53;;;;;;;3.61;100.00;101968.97;5054324;28;20045;-51
2023/04/02 08:44:07;;;;;;;8.63;4.63;;;;;;;3.62;100.00;101975.84;5053481;28;20021;-52
2023/04/02 08:46:43;;;;;;;7.40;4.30;;;;;;;3.64;100.00;101988.72;5054470;28;20033;-51
2023/04/02 08:49:31;;;;;;;7.90;4.13;;;;;;;3.63;100.00;101998.03;5053761;28;20543;-52
2023/04/02 08:51:56;;;;;;;10.65;4.82;;;;;;;3.60;100.00;101997.81;5052932;28;20086;-52
2023/04/02 08:54:28;;;;;;;11.55;4.53;;;;;;;3.61;100.00;102009.75;5053899;28;20029;-50
2023/04/02 08:57:20;;;;;;;8.07;4.15;;;;;;;3.65;100.00;102010.91;5053864;28;20021;-52
2023/04/02 08:59:46;;;;;;;10.40;4.53;;;;;;;3.62;100.00;102006.44;5053165;28;20468;-51
2023/04/02 09:02:36;;;;;;;8.57;4.50;;;;;;;3.61;100.00;102021.63;5053351;28;20101;-52
2023/04/02 09:05:06;;;;;;;9.38;4.88;;;;;;;3.65;100.00;102030.41;5052837;28;20036;-51
2023/04/02 09:07:32;;;;;;;9.63;4.55;;;;;;;3.77;100.00;102026.22;5053758;28;20071;-52
2023/04/02 09:09:58;;;;;;;9.73;4.32;;;;;;;3.70;100.00;102031.66;5053442;28;20021;-51
2023/04/02 09:12:30;;;;;;;12.75;4.55;;;;;;;3.81;100.00;102032.47;5052965;28;20075;-51
2023/04/02 09:15:25;;;;;;;8.13;4.35;;;;;;;3.95;100.00;102053.16;5053373;28;20139;-51
2023/04/02 09:18:10;;;;;;;9.13;4.13;;;;;;;3.89;100.00;102050.13;5053736;28;20067;-50
2023/04/02 09:20:36;;;;;;;8.38;4.32;;;;;;;3.94;100.00;102051.38;5052798;28;20021;-52
2023/04/02 09:23:01;;;;;;;10.75;4.68;;;;;;;3.93;100.00;102048.72;5053120;28;20031;-53
2023/04/02 09:25:30;;;;;;;11.27;4.72;;;;;;;3.91;100.00;102056.25;5053369;28;20518;-52
2023/04/02 09:27:59;;;;;;;9.57;4.70;;;;;;;3.85;100.00;102065.06;5052510;28;20032;-51
2023/04/02 09:30:30;;;;;;;8.93;4.68;;;;;;;3.84;100.00;102066.75;5053474;28;20021;-52
2023/04/02 09:33:00;;;;;;;11.20;4.82;;;;;;;3.70;100.00;102070.78;5052045;28;20507;-52
2023/04/02 09:35:31;;;;;;;8.68;4.47;;;;;;;3.54;100.00;102089.09;5053535;28;20104;-52
2023/04/02 09:38:08;;;;;;;10.88;5.05;;;;;;;3.50;100.00;102091.28;5050893;28;20024;-51
2023/04/02 09:40:54;;;;;;;9.02;4.43;;;;;;;3.52;100.00;102093.19;5052876;28;20056;-52
2023/04/02 09:43:23;;;;;;;9.27;4.57;;;;;;;3.43;100.00;102090.81;5048902;28;20036;-51
2023/04/02 09:46:01;;;;;;;10.13;4.80;;;;;;;3.41;100.00;102091.47;5053028;28;20029;-52
2023/04/02 09:48:34;;;;;;;11.38;5.10;;;;;;;3.38;100.00;102097.22;5051903;28;20108;-52
2023/04/02 09:51:05;;;;;;;11.07;5.38;;;;;;;3.40;100.00;102108.41;5051699;28;20032;-52
2023/04/02 09:53:37;;;;;;;12.45;5.50;;;;;;;3.48;100.00;102103.91;5052730;28;20598;-52
2023/04/02 09:56:14;;;;;;;11.05;5.90;;;;;;;3.53;100.00;102122.13;5051902;28;20059;-51
2023/04/02 09:58:41;;;;;;;9.75;5.07;;;;;;;3.56;100.00;102114.72;5052932;28;20071;-52
2023/04/02 10:01:27;;;;;;;10.95;4.75;;;;;;;3.61;100.00;102124.47;5052030;28;20052;-52
2023/04/02 10:03:52;;;;;;;8.23;4.90;;;;;;;3.62;100.00;102139.03;5053080;28;20119;-52
2023/04/02 10:06:17;;;;;;;12.88;5.13;;;;;;;3.68;100.00;102132.63;5052574;28;20060;-55
2023/04/02 10:08:44;;;;;;;8.73;4.50;;;;;;;3.68;100.00;102141.19;5052040;28;20437;-54
2023/04/02 10:11:26;;;;;;;9.88;4.45;;;;;;;3.67;100.00;102146.13;5052407;28;20017;-52
2023/04/02 10:13:56;;;;;;;11.27;4.80;;;;;;;3.78;100.00;102137.66;5052901;28;20128;-52
2023/04/02 10:16:36;;;;;;;11.88;4.55;;;;;;;3.91;100.00;102134.41;5052162;28;20447;-51
2023/04/02 10:19:08;;;;;;;9.27;4.30;;;;;;;4.01;100.00;102139.44;5052548;28;20052;-52
2023/04/02 10:21:37;;;;;;;10.93;5.10;;;;;;;4.25;100.00;102140.44;5052558;28;20021;-52
2023/04/02 10:24:11;;;;;;;7.65;4.22;;;;;;;4.36;100.00;102148.03;5051462;28;20021;-52
2023/04/02 10:27:03;;;;;;;10.60;4.35;;;;;;;4.51;99.33;102149.19;5052713;28;20029;-51
2023/04/02 10:29:44;;;;;;;7.25;4.20;;;;;;;4.72;100.00;102137.13;5051775;28;20499;-52
2023/04/02 10:32:12;;;;;;;9.88;4.35;;;;;;;4.62;96.64;102139.75;5051932;28;20021;-51
2023/04/02 10:35:02;;;;;;;7.25;4.30;;;;;;;4.73;99.02;102155.91;5052721;28;20052;-51
2023/04/02 10:37:45;;;;;;;12.05;5.18;;;;;;;4.75;98.89;102154.34;5048528;28;20480;-52
2023/04/02 10:40:22;;;;;;;10.27;4.40;;;;;;;4.87;96.61;102164.59;5052106;28;20031;-52
2023/04/02 10:43:15;;;;;;;8.10;4.30;;;;;;;4.98;95.33;102173.03;5052380;28;20021;-52
2023/04/02 10:45:49;;;;;;;9.18;4.50;;;;;;;5.09;94.69;102180.72;5052511;28;20041;-51
2023/04/02 10:48:52;;;;;;;10.13;5.05;;;;;;;5.15;93.80;102190.50;5052167;28;20051;-52
2023/04/02 10:51:42;;;;;;;8.77;4.30;;;;;;;5.18;93.56;102183.06;5051445;28;20017;-51
2023/04/02 10:54:32;;;;;;;9.75;5.00;;;;;;;5.57;95.89;102178.16;5052067;28;20025;-52
2023/04/02 10:57:06;;;;;;;11.93;4.80;;;;;;;5.60;92.99;102183.47;5051812;28;20075;-53
2023/04/02 10:59:36;;;;;;;10.45;4.55;;;;;;;5.58;92.57;102180.81;5055201;28;20190;-52
2023/04/02 11:02:15;;;;;;;8.25;4.00;;;;;;;5.80;90.80;102181.44;5055749;28;20048;-51
2023/04/02 11:04:44;;;;;;;11.10;4.22;;;;;;;5.96;90.20;102183.41;5055560;28;20033;-51
2023/04/02 11:07:33;;;;;;;9.75;4.30;;;;;;;6.07;91.53;102180.84;5055584;28;20428;-52
2023/04/02 11:10:00;;;;;;;10.45;4.40;;;;;;;6.11;88.78;102189.63;5055450;28;20451;-52
2023/04/02 11:12:46;;;;;;;10.43;4.60;;;;;;;6.36;89.01;102201.56;5055349;28;20025;-51
2023/04/02 11:15:18;;;;;;;9.10;3.60;;;;;;;6.66;85.39;102196.75;5055610;28;20036;-53
2023/04/02 11:17:45;;;;;;;8.88;3.92;;;;;;;6.66;84.40;102199.31;5055878;28;20025;-51
2023/04/02 11:20:42;;;;;;;9.85;3.67;;;;;;;6.80;86.26;102208.81;5054852;28;20436;-53
2023/04/02 11:23:12;;;;;;;8.98;3.85;;;;;;;6.88;84.64;102223.03;5055484;28;20419;-52
2023/04/02 11:25:40;;;;;;;10.50;3.63;;;;;;;6.94;85.33;102221.66;5054791;28;20052;-53
2023/04/02 11:28:29;;;;;;;9.45;4.07;;;;;;;6.89;85.24;102216.22;5055248;28;20357;-52
2023/04/02 11:30:56;;;;;;;7.88;3.85;;;;;;;6.77;84.46;102231.66;5055513;28;20033;-54
2023/04/02 11:33:32;;;;;;;9.35;3.95;;;;;;;6.68;85.82;102231.94;5054833;28;20027;-51
2023/04/02 11:35:57;;;;;;;7.55;3.67;;;;;;;6.29;84.72;102237.75;5055258;28;20044;-52
2023/04/02 11:38:47;;;;;;;8.27;3.65;;;;;;;6.17;88.04;102238.72;5055507;28;20017;-51
2023/04/02 11:41:13;;;;;;;9.90;4.38;;;;;;;6.06;85.35;102242.19;5054489;28;20128;-53
2023/04/02 11:43:40;;;;;;;7.63;3.83;;;;;;;6.02;86.38;102241.06;5055535;28;20092;-53
2023/04/02 11:46:35;;;;;;;9.52;3.88;;;;;;;5.92;87.00;102248.84;5055045;28;20388;-53
2023/04/02 11:49:33;;;;;;;8.25;3.78;;;;;;;5.89;89.08;102253.75;5054831;28;20029;-53
2023/04/02 11:51:59;;;;;;;9.98;3.92;;;;;;;5.70;86.27;102260.09;5055068;28;20036;-54